Terminal Aerodrome Forecast
Issued by NWS

Home | Current Version | Previous Version | Text Only | Print | Product List | Glossary On
Versions: 1 2 3 4 5 6 7 8 9 10 11 12 13
041
FTUS43 KEAX 192327
TAFMKC
TAF
KMKC 192327Z 2000/2024 18013G22KT P6SM FEW250
     FM200300 17010KT P6SM FEW250 WS015/22040KT
     FM200900 VRB06KT P6SM SCT250
     FM201500 02008KT P6SM SCT250=

USA.gov is the U.S. government's official web portal to all federal, state and local government web resources and services.